createdAt,value
2018-09-01T00:01:19.400Z,12.70
2018-09-01T00:03:47.626Z,12.63
2018-09-01T00:06:15.870Z,12.90
2018-09-01T00:08:44.103Z,13.23
2018-09-01T00:11:12.367Z,12.63
2018-09-01T00:13:40.571Z,13.10
2018-09-01T00:16:08.806Z,12.53
2018-09-01T00:18:37.042Z,12.80
2018-09-01T00:21:05.275Z,12.33
2018-09-01T00:23:33.511Z,12.67
2018-09-01T00:26:01.768Z,13.07
2018-09-01T00:28:29.990Z,12.00
2018-09-01T00:30:58.225Z,12.83
2018-09-01T00:33:26.465Z,12.83
2018-09-01T00:35:54.727Z,13.10
2018-09-01T00:38:28.436Z,12.90
2018-09-01T00:40:56.671Z,12.17
2018-09-01T00:43:24.886Z,12.57
2018-09-01T00:45:53.119Z,11.03
2018-09-01T00:48:21.352Z,12.93
2018-09-01T00:50:49.592Z,12.80
2018-09-01T00:53:17.812Z,12.50
2018-09-01T00:55:46.066Z,13.17
2018-09-01T00:58:14.297Z,13.10
2018-09-01T01:00:42.539Z,12.60
2018-09-01T01:03:10.774Z,13.00
2018-09-01T01:05:39.004Z,13.17
2018-09-01T01:08:07.226Z,13.10
2018-09-01T01:10:35.466Z,14.03
2018-09-01T01:13:03.687Z,12.27
2018-09-01T01:15:31.926Z,13.00
2018-09-01T01:18:00.151Z,13.90
2018-09-01T01:20:28.394Z,13.40
2018-09-01T01:22:56.626Z,13.00
2018-09-01T01:25:24.862Z,13.30
2018-09-01T01:27:53.106Z,12.30
2018-09-01T01:30:21.338Z,13.50
2018-09-01T01:32:49.565Z,13.87
2018-09-01T01:35:17.802Z,13.23
2018-09-01T01:37:46.054Z,13.10
2018-09-01T01:40:14.299Z,12.80
2018-09-01T01:42:42.533Z,13.60
2018-09-01T01:45:10.800Z,13.20
2018-09-01T01:47:40.846Z,13.00
2018-09-01T01:50:10.433Z,12.87
2018-09-01T01:52:38.746Z,13.87
2018-09-01T01:55:07.320Z,15.47
2018-09-01T01:57:39.791Z,16.43
2018-09-01T02:00:09.079Z,16.30
2018-09-01T02:02:37.774Z,16.70
2018-09-01T02:05:06.663Z,16.23
2018-09-01T02:07:34.902Z,17.50
2018-09-01T02:10:03.145Z,16.03
2018-09-01T02:12:31.388Z,17.10
2018-09-01T02:14:59.718Z,18.23
2018-09-01T02:17:27.982Z,20.90
2018-09-01T02:19:56.215Z,20.83
2018-09-01T02:22:24.451Z,19.10
2018-09-01T02:24:52.678Z,19.50
2018-09-01T02:27:20.959Z,21.47
2018-09-01T02:29:49.237Z,22.90
2018-09-01T02:32:17.476Z,21.63
2018-09-01T02:34:45.824Z,22.53
2018-09-01T02:37:14.496Z,23.43
2018-09-01T02:39:42.942Z,23.43
2018-09-01T02:42:11.428Z,25.93
2018-09-01T02:44:39.709Z,26.00
2018-09-01T02:47:07.954Z,25.57
2018-09-01T02:49:36.201Z,24.43
2018-09-01T02:52:04.639Z,26.73
2018-09-01T02:54:32.866Z,27.60
2018-09-01T02:57:01.115Z,24.37
2018-09-01T02:59:29.387Z,26.33
2018-09-01T03:01:57.606Z,23.70
2018-09-01T03:04:25.837Z,23.13
2018-09-01T03:06:55.840Z,23.47
2018-09-01T03:09:24.410Z,23.33
2018-09-01T03:11:53.506Z,25.53
2018-09-01T03:14:22.737Z,24.30
2018-09-01T03:16:51.487Z,26.30
2018-09-01T03:19:19.752Z,23.37
2018-09-01T03:21:47.995Z,23.90
2018-09-01T03:24:16.277Z,25.17
2018-09-01T03:26:44.527Z,25.83
2018-09-01T03:29:12.784Z,23.53
2018-09-01T03:31:41.013Z,24.27
2018-09-01T03:34:09.253Z,24.40
2018-09-01T03:36:37.472Z,25.10
2018-09-01T03:39:07.827Z,24.67
2018-09-01T03:41:36.492Z,26.83
2018-09-01T03:44:04.731Z,24.43
2018-09-01T03:46:32.970Z,24.50
2018-09-01T03:49:02.205Z,23.13
2018-09-01T03:51:30.532Z,23.27
2018-09-01T03:53:58.882Z,23.97
2018-09-01T03:56:27.116Z,22.43
2018-09-01T03:58:55.369Z,23.93
2018-09-01T04:01:23.604Z,23.70
2018-09-01T04:03:51.842Z,21.93
2018-09-01T04:06:20.070Z,23.13
2018-09-01T04:08:48.328Z,23.40
2018-09-01T04:11:16.551Z,24.10
2018-09-01T04:13:44.793Z,24.47
2018-09-01T04:16:13.030Z,23.03
2018-09-01T04:18:41.262Z,23.47
2018-09-01T04:21:09.499Z,23.40
2018-09-01T04:23:37.754Z,24.43
2018-09-01T04:26:05.993Z,21.73
2018-09-01T04:28:34.238Z,21.87
2018-09-01T04:31:02.473Z,23.00
2018-09-01T04:33:30.716Z,22.77
2018-09-01T04:35:58.991Z,23.90
2018-09-01T04:38:27.232Z,23.73
2018-09-01T04:40:55.479Z,23.03
2018-09-01T04:43:23.757Z,22.90
2018-09-01T04:45:51.998Z,24.53
2018-09-01T04:48:20.234Z,21.73
2018-09-01T04:50:48.478Z,22.60
2018-09-01T04:53:16.725Z,21.67
2018-09-01T04:55:44.962Z,21.47
2018-09-01T04:58:13.195Z,20.10
2018-09-01T05:00:41.491Z,22.10
2018-09-01T05:03:09.664Z,21.63
2018-09-01T05:05:37.902Z,20.97
2018-09-01T05:08:06.126Z,21.20
2018-09-01T05:10:34.390Z,21.53
2018-09-01T05:13:02.614Z,20.97
2018-09-01T05:15:30.845Z,21.57
2018-09-01T05:17:59.079Z,18.77
2018-09-01T05:20:27.310Z,20.37
2018-09-01T05:22:55.553Z,20.50
2018-09-01T05:25:23.802Z,21.00
2018-09-01T05:27:52.021Z,20.00
2018-09-01T05:30:20.265Z,19.10
2018-09-01T05:32:48.483Z,21.43
2018-09-01T05:35:16.736Z,20.07
2018-09-01T05:37:44.996Z,19.83
2018-09-01T05:40:19.848Z,21.90
2018-09-01T05:42:48.079Z,19.97
2018-09-01T05:45:16.327Z,20.50
2018-09-01T05:47:44.563Z,19.90
2018-09-01T05:50:12.789Z,20.53
2018-09-01T05:52:41.035Z,19.17
2018-09-01T05:55:09.286Z,20.67
2018-09-01T05:57:37.523Z,21.40
2018-09-01T06:00:06.788Z,19.07
2018-09-01T06:02:35.031Z,18.90
2018-09-01T06:05:03.474Z,19.17
2018-09-01T06:07:31.716Z,20.40
2018-09-01T06:09:59.948Z,23.07
2018-09-01T06:12:28.203Z,19.50
2018-09-01T06:14:56.444Z,19.83
2018-09-01T06:17:24.721Z,18.60
2018-09-01T06:19:52.915Z,20.00
2018-09-01T06:22:21.161Z,19.53
2018-09-01T06:24:49.412Z,20.20
2018-09-01T06:27:23.143Z,18.90
2018-09-01T06:29:51.366Z,18.33
2018-09-01T06:32:19.698Z,18.47
2018-09-01T06:34:47.939Z,18.40
2018-09-01T06:37:16.177Z,19.33
2018-09-01T06:39:44.416Z,20.10
2018-09-01T06:42:12.666Z,19.97
2018-09-01T06:44:40.909Z,19.10
2018-09-01T06:47:09.158Z,18.50
2018-09-01T06:49:37.396Z,20.83
2018-09-01T06:52:05.688Z,19.80
2018-09-01T06:54:33.907Z,20.17
2018-09-01T06:57:02.160Z,17.90
2018-09-01T06:59:30.396Z,18.40
2018-09-01T07:01:58.623Z,17.43
2018-09-01T07:04:26.915Z,19.10
2018-09-01T07:06:55.143Z,19.13
2018-09-01T07:09:23.393Z,17.90
2018-09-01T07:11:51.615Z,18.00
2018-09-01T07:14:19.855Z,19.27
2018-09-01T07:16:48.083Z,17.77
2018-09-01T07:19:16.320Z,16.60
2018-09-01T07:21:44.800Z,16.60
2018-09-01T07:24:13.039Z,17.03
2018-09-01T07:26:41.259Z,16.87
2018-09-01T07:29:09.515Z,15.93
2018-09-01T07:31:38.382Z,16.20
2018-09-01T07:34:06.390Z,16.17
2018-09-01T07:36:34.606Z,16.50
2018-09-01T07:39:02.884Z,16.40
2018-09-01T07:41:31.111Z,15.97
2018-09-01T07:43:59.340Z,16.23
2018-09-01T07:46:27.578Z,15.73
2018-09-01T07:48:55.835Z,16.70
2018-09-01T07:51:24.061Z,15.13
2018-09-01T07:53:52.310Z,17.13
2018-09-01T07:56:20.647Z,15.10
2018-09-01T07:58:48.786Z,14.77
2018-09-01T08:01:17.011Z,14.53
2018-09-01T08:03:45.253Z,14.40
2018-09-01T08:06:13.490Z,15.07
2018-09-01T08:08:41.799Z,15.73
2018-09-01T08:11:10.113Z,14.97
2018-09-01T08:13:38.423Z,16.17
2018-09-01T08:16:06.624Z,15.87
2018-09-01T08:18:34.895Z,15.60
2018-09-01T08:21:03.154Z,14.50
2018-09-01T08:23:31.416Z,12.33
2018-09-01T08:25:59.687Z,14.13
2018-09-01T08:28:27.949Z,14.40
2018-09-01T08:30:56.207Z,15.67
2018-09-01T08:33:24.438Z,13.13
2018-09-01T08:35:52.704Z,14.93
2018-09-01T08:38:20.931Z,12.40
2018-09-01T08:40:49.157Z,13.83
2018-09-01T08:43:17.376Z,14.30
2018-09-01T08:45:45.610Z,13.97
2018-09-01T08:48:13.825Z,15.67
2018-09-01T08:50:42.080Z,14.00
2018-09-01T08:53:10.306Z,14.80
2018-09-01T08:55:38.551Z,13.23
2018-09-01T08:58:06.791Z,14.00
2018-09-01T09:00:35.037Z,13.83
2018-09-01T09:03:03.266Z,13.80
2018-09-01T09:05:31.567Z,13.50
2018-09-01T09:07:59.751Z,12.83
2018-09-01T09:10:28.000Z,13.23
2018-09-01T09:12:56.320Z,16.30
2018-09-01T09:15:24.564Z,16.13
2018-09-01T09:17:52.789Z,15.27
2018-09-01T09:20:21.079Z,15.60
2018-09-01T09:22:49.317Z,14.97
2018-09-01T09:25:17.537Z,16.47
2018-09-01T09:27:45.779Z,14.60
2018-09-01T09:30:15.932Z,15.20
2018-09-01T09:32:44.160Z,16.37
2018-09-01T09:35:12.486Z,16.77
2018-09-01T09:37:40.731Z,16.00
2018-09-01T09:40:08.975Z,14.50
2018-09-01T09:42:37.211Z,14.30
2018-09-01T09:45:06.309Z,15.27
2018-09-01T09:47:34.583Z,14.77
2018-09-01T09:50:02.826Z,13.40
2018-09-01T09:52:31.063Z,13.97
2018-09-01T09:54:59.428Z,14.50
2018-09-01T09:57:27.649Z,12.10
2018-09-01T09:59:55.866Z,10.80
2018-09-01T10:02:24.122Z,10.87
2018-09-01T10:04:52.342Z,10.90
2018-09-01T10:07:20.572Z,8.70
2018-09-01T10:09:49.677Z,10.40
2018-09-01T10:12:18.442Z,9.77
2018-09-01T10:14:46.667Z,10.40
2018-09-01T10:17:14.938Z,11.87
2018-09-01T10:19:43.178Z,12.33
2018-09-01T10:22:11.398Z,12.00
2018-09-01T10:24:39.624Z,12.20
2018-09-01T10:27:07.963Z,12.73
2018-09-01T10:29:36.223Z,12.30
2018-09-01T10:32:04.777Z,13.50
2018-09-01T10:34:33.009Z,12.87
2018-09-01T10:37:01.243Z,12.33
2018-09-01T10:39:29.487Z,12.57
2018-09-01T10:41:57.722Z,11.00
2018-09-01T10:44:26.017Z,11.23
2018-09-01T10:46:54.211Z,11.40
2018-09-01T10:49:22.493Z,12.30
2018-09-01T10:51:50.731Z,12.23
2018-09-01T10:54:18.966Z,11.13
2018-09-01T10:56:47.207Z,11.13
2018-09-01T10:59:15.426Z,11.23
2018-09-01T11:01:43.690Z,11.60
2018-09-01T11:04:11.917Z,11.87
2018-09-01T11:06:40.162Z,10.40
2018-09-01T11:09:09.223Z,10.70
2018-09-01T11:11:37.452Z,10.73
2018-09-01T11:14:05.729Z,10.17
2018-09-01T11:16:33.950Z,8.90
2018-09-01T11:19:02.199Z,8.73
2018-09-01T11:21:30.593Z,9.20
2018-09-01T11:23:58.824Z,9.00
2018-09-01T11:26:27.067Z,9.23
2018-09-01T11:28:55.319Z,10.23
2018-09-01T11:31:23.562Z,8.80
2018-09-01T11:33:51.825Z,9.37
2018-09-01T11:36:20.068Z,8.57
2018-09-01T11:38:48.325Z,9.40
2018-09-01T11:41:16.542Z,8.90
2018-09-01T11:43:44.812Z,8.80
2018-09-01T11:46:13.050Z,8.23
2018-09-01T11:48:41.327Z,8.83
2018-09-01T11:51:09.522Z,7.87
2018-09-01T11:53:37.815Z,7.60
2018-09-01T11:56:06.026Z,7.50
2018-09-01T11:58:34.343Z,7.70
2018-09-01T12:01:02.526Z,9.30
2018-09-01T12:03:30.795Z,8.00
2018-09-01T12:05:59.006Z,8.37
2018-09-01T12:08:27.262Z,7.50
2018-09-01T12:10:55.519Z,7.40
2018-09-01T12:13:23.774Z,7.20
2018-09-01T12:15:52.057Z,7.73
2018-09-01T12:18:20.269Z,7.10
2018-09-01T12:20:48.498Z,6.70
2018-09-01T12:23:16.732Z,6.93
2018-09-01T12:25:44.949Z,7.13
2018-09-01T12:28:13.234Z,7.13
2018-09-01T12:30:41.450Z,6.70
2018-09-01T12:33:09.697Z,7.23
2018-09-01T12:35:37.939Z,7.17
2018-09-01T12:38:06.157Z,6.63
2018-09-01T12:40:34.402Z,7.37
2018-09-01T12:43:02.622Z,7.50
2018-09-01T12:45:30.887Z,7.57
2018-09-01T12:47:59.126Z,6.47
2018-09-01T12:50:27.374Z,5.90
2018-09-01T12:52:55.714Z,6.57
2018-09-01T12:55:23.950Z,6.70
2018-09-01T12:57:52.196Z,7.30
2018-09-01T13:00:20.416Z,6.90
2018-09-01T13:02:48.671Z,7.30
2018-09-01T13:05:16.908Z,6.60
2018-09-01T13:07:45.139Z,6.40
2018-09-01T13:10:13.376Z,6.87
2018-09-01T13:12:41.590Z,5.97
2018-09-01T13:15:09.847Z,5.97
2018-09-01T13:17:38.103Z,6.13
2018-09-01T13:20:06.404Z,6.40
2018-09-01T13:22:34.639Z,6.00
2018-09-01T13:25:02.907Z,6.23
2018-09-01T13:27:31.144Z,7.27
2018-09-01T13:29:59.382Z,7.00
2018-09-01T13:32:27.619Z,6.27
2018-09-01T13:34:55.906Z,6.10
2018-09-01T13:37:24.128Z,6.33
2018-09-01T13:39:52.357Z,6.30
2018-09-01T13:42:20.586Z,5.70
2018-09-01T13:44:48.907Z,6.23
2018-09-01T13:47:17.072Z,5.70
2018-09-01T13:49:45.337Z,5.80
2018-09-01T13:52:13.563Z,5.27
2018-09-01T13:54:41.823Z,5.57
2018-09-01T13:57:10.091Z,5.53
2018-09-01T13:59:38.309Z,5.80
2018-09-01T14:02:06.547Z,5.33
2018-09-01T14:04:34.787Z,5.40
2018-09-01T14:07:03.073Z,5.83
2018-09-01T14:09:31.320Z,10.07
2018-09-01T14:11:59.576Z,7.73
2018-09-01T14:14:27.901Z,4.57
2018-09-01T14:16:56.064Z,6.17
2018-09-01T14:19:24.303Z,5.83
2018-09-01T14:21:52.550Z,5.30
2018-09-01T14:24:20.794Z,5.87
2018-09-01T14:26:49.124Z,5.60
2018-09-01T14:29:17.363Z,5.60
2018-09-01T14:31:45.620Z,5.70
2018-09-01T14:34:13.937Z,6.53
2018-09-01T14:36:42.129Z,6.10
2018-09-01T14:39:11.303Z,5.70
2018-09-01T14:41:39.551Z,5.60
2018-09-01T14:44:07.827Z,4.87
2018-09-01T14:46:36.089Z,5.13
2018-09-01T14:49:04.368Z,5.03
2018-09-01T14:51:32.620Z,4.90
2018-09-01T14:54:00.862Z,5.10
2018-09-01T14:56:29.136Z,4.67
2018-09-01T14:58:57.364Z,4.80
2018-09-01T15:01:25.598Z,5.20
2018-09-01T15:03:53.824Z,4.60
2018-09-01T15:06:22.055Z,4.27
2018-09-01T15:08:50.311Z,4.63
2018-09-01T15:11:18.539Z,4.43
2018-09-01T15:13:46.756Z,4.70
2018-09-01T15:16:15.001Z,4.90
2018-09-01T15:18:49.796Z,5.00
2018-09-01T15:21:18.022Z,4.43
2018-09-01T15:23:46.231Z,4.53
2018-09-01T15:26:14.483Z,4.37
2018-09-01T15:28:42.702Z,4.60
2018-09-01T15:31:10.929Z,4.37
2018-09-01T15:33:39.142Z,4.40
2018-09-01T15:36:07.386Z,4.97
2018-09-01T15:38:35.607Z,4.40
2018-09-01T15:41:03.831Z,4.50
2018-09-01T15:43:32.062Z,4.90
2018-09-01T15:46:00.328Z,4.30
2018-09-01T15:48:28.507Z,4.30
2018-09-01T15:50:56.755Z,4.73
2018-09-01T15:53:24.982Z,4.80
2018-09-01T15:55:53.503Z,4.20
2018-09-01T15:58:21.728Z,4.50
2018-09-01T16:00:49.970Z,4.13
2018-09-01T16:03:18.200Z,4.73
2018-09-01T16:05:46.419Z,4.77
2018-09-01T16:08:14.644Z,4.67
2018-09-01T16:10:42.903Z,4.53
2018-09-01T16:13:11.186Z,4.50
2018-09-01T16:15:39.414Z,4.13
2018-09-01T16:18:07.643Z,4.57
2018-09-01T16:20:35.868Z,4.47
2018-09-01T16:23:04.090Z,4.10
2018-09-01T16:25:32.299Z,4.60
2018-09-01T16:28:00.559Z,4.70
2018-09-01T16:30:28.849Z,4.13
2018-09-01T16:32:57.201Z,3.83
2018-09-01T16:35:25.426Z,4.00
2018-09-01T16:37:53.643Z,4.33
2018-09-01T16:40:21.851Z,3.80
2018-09-01T16:42:50.067Z,4.63
2018-09-01T16:45:18.274Z,4.07
2018-09-01T16:47:46.523Z,4.63
2018-09-01T16:50:17.842Z,3.83
2018-09-01T16:52:46.059Z,3.90
2018-09-01T16:55:14.283Z,4.20
2018-09-01T16:57:42.495Z,3.43
2018-09-01T17:00:10.703Z,4.40
2018-09-01T17:02:38.931Z,4.00
2018-09-01T17:05:07.135Z,4.77
2018-09-01T17:07:35.471Z,5.00
2018-09-01T17:10:03.703Z,3.80
2018-09-01T17:12:31.919Z,4.30
2018-09-01T17:15:00.171Z,4.17
2018-09-01T17:17:28.387Z,4.77
2018-09-01T17:19:56.602Z,3.87
2018-09-01T17:22:24.822Z,3.57
2018-09-01T17:24:53.059Z,3.60
2018-09-01T17:27:21.271Z,4.50
2018-09-01T17:29:49.497Z,3.67
2018-09-01T17:32:17.721Z,3.80
2018-09-01T17:34:45.946Z,4.03
2018-09-01T17:37:14.158Z,4.33
2018-09-01T17:39:42.371Z,4.60
2018-09-01T17:42:10.577Z,4.43
2018-09-01T17:44:38.812Z,4.47
2018-09-01T17:47:07.019Z,4.40
2018-09-01T17:49:35.306Z,4.20
2018-09-01T17:52:03.458Z,4.87
2018-09-01T17:54:31.686Z,4.03
2018-09-01T17:56:59.913Z,3.87
2018-09-01T17:59:28.140Z,4.50
2018-09-01T18:01:56.362Z,4.27
2018-09-01T18:04:24.633Z,4.43
2018-09-01T18:06:52.831Z,4.27
2018-09-01T18:09:21.059Z,4.50
2018-09-01T18:11:49.267Z,4.80
2018-09-01T18:14:17.511Z,4.80
2018-09-01T18:16:45.752Z,4.87
2018-09-01T18:19:13.975Z,4.90
2018-09-01T18:21:42.226Z,5.20
2018-09-01T18:24:10.469Z,4.93
2018-09-01T18:26:38.677Z,5.63
2018-09-01T18:29:06.905Z,5.13
2018-09-01T18:31:35.131Z,4.70
2018-09-01T18:34:03.366Z,4.80
2018-09-01T18:36:31.650Z,6.13
2018-09-01T18:38:59.864Z,5.50
2018-09-01T18:41:28.086Z,5.13
2018-09-01T18:43:56.306Z,5.00
2018-09-01T18:46:24.523Z,4.33
2018-09-01T18:48:52.730Z,6.60
2018-09-01T18:51:20.954Z,6.30
2018-09-01T18:53:49.189Z,6.63
2018-09-01T18:56:17.422Z,5.47
2018-09-01T18:58:45.639Z,5.30
2018-09-01T19:01:13.864Z,5.03
2018-09-01T19:03:42.087Z,8.20
2018-09-01T19:06:10.304Z,4.50
2018-09-01T19:08:38.519Z,4.70
2018-09-01T19:11:06.755Z,4.40
2018-09-01T19:13:34.983Z,4.20
2018-09-01T19:16:03.216Z,5.00
2018-09-01T19:18:31.464Z,4.60
2018-09-01T19:20:59.872Z,4.77
2018-09-01T19:23:28.115Z,4.70
2018-09-01T19:25:56.320Z,4.70
2018-09-01T19:28:24.535Z,4.80
2018-09-01T19:30:52.765Z,4.77
2018-09-01T19:33:20.975Z,4.50
2018-09-01T19:35:49.219Z,4.90
2018-09-01T19:38:17.466Z,5.00
2018-09-01T19:40:45.763Z,5.40
2018-09-01T19:43:13.968Z,6.13
2018-09-01T19:45:42.274Z,5.50
2018-09-01T19:48:10.446Z,7.93
2018-09-01T19:50:38.676Z,5.70
2018-09-01T19:53:06.891Z,4.63
2018-09-01T19:55:35.107Z,5.77
2018-09-01T19:58:03.325Z,5.40
2018-09-01T20:00:31.590Z,6.53
2018-09-01T20:02:59.826Z,7.00
2018-09-01T20:05:28.061Z,7.70
2018-09-01T20:07:56.289Z,6.40
2018-09-01T20:10:24.498Z,6.10
2018-09-01T20:12:52.723Z,5.60
2018-09-01T20:15:20.939Z,5.00
2018-09-01T20:17:49.160Z,4.30
2018-09-01T20:20:17.400Z,4.50
2018-09-01T20:22:45.843Z,4.80
2018-09-01T20:25:14.136Z,4.47
2018-09-01T20:27:42.307Z,4.80
2018-09-01T20:30:10.520Z,5.07
2018-09-01T20:32:38.759Z,6.23
2018-09-01T20:35:12.602Z,5.13
2018-09-01T20:37:40.830Z,6.00
2018-09-01T20:40:09.039Z,5.90
2018-09-01T20:42:37.283Z,5.80
2018-09-01T20:45:05.570Z,4.87
2018-09-01T20:47:33.798Z,5.57
2018-09-01T20:50:02.019Z,6.10
2018-09-01T20:52:30.293Z,5.40
2018-09-01T20:55:05.329Z,5.50
2018-09-01T20:57:33.576Z,6.50
2018-09-01T21:00:01.761Z,5.20
2018-09-01T21:02:29.974Z,5.50
2018-09-01T21:04:58.187Z,5.13
2018-09-01T21:07:26.494Z,6.40
2018-09-01T21:09:54.703Z,6.20
2018-09-01T21:12:22.959Z,4.80
2018-09-01T21:14:51.162Z,4.50
2018-09-01T21:17:19.410Z,5.17
2018-09-01T21:19:47.622Z,4.93
2018-09-01T21:22:15.842Z,5.20
2018-09-01T21:24:44.061Z,4.90
2018-09-01T21:27:12.332Z,4.90
2018-09-01T21:29:40.537Z,5.17
2018-09-01T21:32:08.756Z,5.23
2018-09-01T21:34:37.353Z,5.03
2018-09-01T21:37:05.568Z,5.33
2018-09-01T21:39:33.858Z,5.93
2018-09-01T21:42:02.406Z,6.37
2018-09-01T21:44:30.613Z,5.17
2018-09-01T21:46:58.823Z,5.17
2018-09-01T21:49:27.029Z,5.30
2018-09-01T21:51:55.234Z,4.90
2018-09-01T21:54:23.467Z,5.17
2018-09-01T21:56:51.700Z,4.90
2018-09-01T21:59:19.902Z,4.67
2018-09-01T22:01:53.615Z,4.87
2018-09-01T22:04:21.834Z,4.97
2018-09-01T22:06:50.043Z,5.10
2018-09-01T22:09:18.263Z,5.73
2018-09-01T22:11:46.469Z,4.80
2018-09-01T22:14:14.700Z,4.97
2018-09-01T22:16:42.907Z,4.57
2018-09-01T22:19:11.131Z,5.00
2018-09-01T22:21:39.329Z,4.60
2018-09-01T22:24:07.559Z,4.60
2018-09-01T22:26:35.766Z,4.67
2018-09-01T22:29:04.003Z,5.20
2018-09-01T22:31:32.262Z,4.57
2018-09-01T22:34:00.429Z,4.80
2018-09-01T22:36:28.645Z,4.73
2018-09-01T22:38:56.891Z,5.50
2018-09-01T22:41:25.122Z,5.23
2018-09-01T22:43:53.347Z,5.00
2018-09-01T22:46:21.573Z,5.20
2018-09-01T22:48:49.802Z,5.90
2018-09-01T22:51:18.028Z,5.13
2018-09-01T22:53:46.243Z,4.60
2018-09-01T22:56:14.474Z,6.13
2018-09-01T22:58:42.679Z,4.93
2018-09-01T23:01:10.905Z,5.50
2018-09-01T23:03:39.135Z,5.80
2018-09-01T23:06:07.373Z,5.93
2018-09-01T23:08:35.594Z,5.40
2018-09-01T23:11:03.818Z,5.70
2018-09-01T23:13:32.021Z,5.10
2018-09-01T23:16:00.242Z,5.37
2018-09-01T23:18:28.467Z,5.20
2018-09-01T23:20:56.745Z,5.60
2018-09-01T23:23:24.931Z,4.90
2018-09-01T23:25:53.169Z,5.73
2018-09-01T23:28:21.377Z,5.57
2018-09-01T23:30:49.606Z,5.60
2018-09-01T23:33:17.830Z,5.30
2018-09-01T23:35:46.082Z,5.97
2018-09-01T23:38:14.285Z,5.77
2018-09-01T23:40:42.510Z,5.27
2018-09-01T23:43:10.730Z,6.73
2018-09-01T23:45:38.963Z,5.30
2018-09-01T23:48:07.172Z,5.27
2018-09-01T23:50:35.400Z,4.93
2018-09-01T23:53:03.640Z,5.50
2018-09-01T23:55:31.876Z,5.67
2018-09-01T23:58:00.154Z,5.50
